GSLNT EGBK-EGBK

Flight info

Callsign GSLNT
Flight time 0h 5m
Altitude 4000
Route /
Aircraft CTSL/L-VGD/A

Departure

Time 2026-05-05 13:18
Airport Sywell Aerodrome (EGBK)

Arrival

Time 2026-05-05 13:23
Airport Sywell Aerodrome (EGBK)
Time Latitude Longitude Altitude Speed Heading
2026-05-05 13:07 52.30187 -0.79184 401 ft 0 kts 56°
2026-05-05 13:07 52.30193 -0.79172 404 ft 5 kts 51°
2026-05-05 13:08 52.30196 -0.79166 402 ft 0 kts 49°
2026-05-05 13:08 52.30201 -0.79161 402 ft 0 kts 41°
2026-05-05 13:09 52.30224 -0.79174 402 ft 6 kts 355°
2026-05-05 13:09 52.30250 -0.79145 402 ft 5 kts 46°
2026-05-05 13:09 52.30275 -0.79093 402 ft 8 kts 28°
2026-05-05 13:09 52.30270 -0.79051 402 ft 4 kts 168°
2026-05-05 13:10 52.30253 -0.79050 402 ft 0 kts 186°
2026-05-05 13:10 52.30240 -0.79039 402 ft 0 kts 89°
2026-05-05 13:12 52.30244 -0.79034 402 ft 3 kts 347°
2026-05-05 13:12 52.30277 -0.79052 402 ft 3 kts 313°
2026-05-05 13:13 52.30247 -0.79145 402 ft 15 kts 238°
2026-05-05 13:13 52.30219 -0.79225 402 ft 10 kts 231°
2026-05-05 13:13 52.30200 -0.79289 403 ft 12 kts 277°
2026-05-05 13:13 52.30205 -0.79315 403 ft 0 kts 290°
2026-05-05 13:14 52.30205 -0.79316 403 ft 0 kts 286°
2026-05-05 13:14 52.30206 -0.79317 403 ft 0 kts 281°
2026-05-05 13:14 52.30213 -0.79333 401 ft 1 kts 320°
2026-05-05 13:14 52.30226 -0.79352 403 ft 0 kts
2026-05-05 13:15 52.30360 -0.79262 402 ft 59 kts 25°
2026-05-05 13:15 52.30791 -0.78924 717 ft 75 kts 23°
2026-05-05 13:15 52.31375 -0.79025 888 ft 107 kts 314°
2026-05-05 13:16 52.31208 -0.80089 974 ft 99 kts 200°
2026-05-05 13:16 52.30541 -0.80253 887 ft 103 kts 175°
2026-05-05 13:16 52.29845 -0.80262 874 ft 85 kts 173°
2026-05-05 13:16 52.29846 -0.79738 610 ft 61 kts 32°
2026-05-05 13:17 52.30161 -0.79421 447 ft 47 kts 18°
2026-05-05 13:17 52.30404 -0.79229 404 ft 34 kts 14°
2026-05-05 13:17 52.30701 -0.78991 461 ft 69 kts 24°
2026-05-05 13:17 52.31245 -0.78616 703 ft 95 kts 19°
2026-05-05 13:18 52.31869 -0.78344 1106 ft 91 kts 12°
2026-05-05 13:18 52.32519 -0.78178 1270 ft 95 kts 14°
2026-05-05 13:18 52.32785 -0.77328 1226 ft 121 kts 123°
2026-05-05 13:18 52.31969 -0.77009 1289 ft 118 kts 178°
2026-05-05 13:19 52.31225 -0.77050 1606 ft 102 kts 187°
2026-05-05 13:19 52.30526 -0.77245 2052 ft 105 kts 187°
2026-05-05 13:19 52.29827 -0.77143 2361 ft 107 kts 143°
2026-05-05 13:19 52.29108 -0.76855 2443 ft 112 kts 207°
2026-05-05 13:20 52.29015 -0.77817 2525 ft 96 kts 328°
2026-05-05 13:20 52.29596 -0.77631 2460 ft 103 kts 62°
2026-05-05 13:20 52.29540 -0.76548 2308 ft 94 kts 105°
2026-05-05 13:20 52.29148 -0.75679 1833 ft 100 kts 142°
2026-05-05 13:21 52.28527 -0.75523 1546 ft 92 kts 205°
2026-05-05 13:21 52.27928 -0.76133 767 ft 116 kts 229°
2026-05-05 13:21 52.27295 -0.76370 640 ft 85 kts 146°
2026-05-05 13:21 52.27304 -0.75745 498 ft 63 kts 23°
2026-05-05 13:22 52.27708 -0.75867 362 ft 58 kts 341°
2026-05-05 13:22 52.28078 -0.76173 510 ft 70 kts 342°
2026-05-05 13:22 52.28631 -0.76385 659 ft 96 kts
2026-05-05 13:22 52.29305 -0.76426 794 ft 101 kts 352°
2026-05-05 13:23 52.29866 -0.76848 895 ft 72 kts 358°
2026-05-05 13:23 52.29994 -0.76308 716 ft 59 kts 95°
2026-05-05 13:23 52.29763 -0.76042 450 ft 67 kts 199°
2026-05-05 13:23 52.29411 -0.76247 351 ft 34 kts 198°
2026-05-05 13:24 52.29081 -0.76390 548 ft 55 kts 202°
2026-05-05 13:24 52.29146 -0.76891 797 ft 62 kts 314°
2026-05-05 13:24 52.29517 -0.77519 851 ft 86 kts 318°
2026-05-05 13:24 52.29786 -0.78155 1262 ft 73 kts 311°
2026-05-05 13:25 52.30224 -0.79070 1094 ft 124 kts 310°
2026-05-05 13:25 52.30547 -0.80118 946 ft 97 kts 269°
2026-05-05 13:25 52.30078 -0.80683 776 ft 88 kts 172°
2026-05-05 13:25 52.29798 -0.80172 716 ft 58 kts 81°
2026-05-05 13:26 52.29966 -0.79688 557 ft 45 kts 43°
2026-05-05 13:26 52.30195 -0.79393 438 ft 38 kts 24°
2026-05-05 13:26 52.30379 -0.79245 404 ft 15 kts 24°
2026-05-05 13:26 52.30691 -0.79002 496 ft 68 kts 29°
2026-05-05 13:27 52.31133 -0.78524 828 ft 84 kts 24°
2026-05-05 13:27 52.31620 -0.79079 979 ft 104 kts 281°
2026-05-05 13:27 52.31177 -0.79895 810 ft 99 kts 199°
2026-05-05 13:27 52.30575 -0.80113 772 ft 77 kts 188°
2026-05-05 13:28 52.30099 -0.79966 612 ft 62 kts 133°
2026-05-05 13:28 52.30146 -0.79490 454 ft 41 kts 29°
2026-05-05 13:28 52.30354 -0.79265 410 ft 37 kts 22°
2026-05-05 13:28 52.30537 -0.79127 404 ft 21 kts 19°
2026-05-05 13:29 52.30526 -0.79056 404 ft 14 kts 206°
2026-05-05 13:29 52.30395 -0.79131 404 ft 19 kts 192°
2026-05-05 13:29 52.30302 -0.79064 403 ft 11 kts 166°
2026-05-05 13:29 52.30242 -0.78997 403 ft 13 kts 157°
2026-05-05 13:30 52.30222 -0.79037 403 ft 2 kts 261°
2026-05-05 13:30 52.30220 -0.79040 403 ft 6 kts 201°
2026-05-05 13:30 52.30264 -0.79046 403 ft 13 kts
2026-05-05 13:31 52.30251 -0.79146 403 ft 0 kts 221°
2026-05-05 13:31 52.30242 -0.79166 403 ft 8 kts 217°
2026-05-05 13:31 52.30189 -0.79138 403 ft 2 kts 194°
2026-05-05 13:31 52.30116 -0.79154 403 ft 4 kts 182°
2026-05-05 13:32 52.30113 -0.79158 403 ft 0 kts 242°
2026-05-05 13:32 52.30113 -0.79157 403 ft 0 kts 242°
2026-05-05 13:37 52.30113 -0.79158 403 ft 0 kts 242°
2026-05-05 13:38 52.30113 -0.79157 403 ft 0 kts 242°
2026-05-05 13:40 52.30113 -0.79158 403 ft 0 kts 242°
2026-05-05 13:58 52.30113 -0.79157 406 ft 0 kts 241°
2026-05-05 14:00 52.30113 -0.79158 406 ft 0 kts 241°
2026-05-05 14:06 52.30113 -0.79157 406 ft 0 kts 241°
2026-05-05 14:11 52.30113 -0.79158 407 ft 0 kts 241°
2026-05-05 14:18 52.30113 -0.79157 407 ft 0 kts 241°
2026-05-05 14:23 52.30113 -0.79158 407 ft 0 kts 241°
2026-05-05 14:23 52.30113 -0.79157 407 ft 0 kts 241°
2026-05-05 14:24 52.30113 -0.79158 408 ft 0 kts 241°
2026-05-05 14:27 52.30113 -0.79157 408 ft 0 kts 241°
2026-05-05 14:27 52.30113 -0.79158 408 ft 0 kts 241°
2026-05-05 14:31 52.30113 -0.79157 408 ft 0 kts 241°
2026-05-05 14:31 52.30113 -0.79158 408 ft 0 kts 241°
2026-05-05 14:33 52.30113 -0.79157 408 ft 0 kts 241°
2026-05-05 14:33 52.30113 -0.79158 408 ft 0 kts 241°
2026-05-05 14:37 52.30113 -0.79157 411 ft 0 kts 241°